Angliers, Canada
Current Conditions -  °F | °C
As of 5:00 PM on Tuesday 21 Oct 2014 (Local Time) from CYXR Reporting Station
Few Clouds Few Clouds  
Wind Chill: 34°   Ceiling: Unl
Heat Index: 41°   Visibility: 9mi
Dew Point: 30°   Wind: 13mph
Humidity: 65%   Direction: 10°N
Pressure: 30.24"   Gusts: 18mph
Location:  47.55°N, 79.23°W
Report Text: CYXR 212100Z AUTO 01011G16KT 9SM FEW033 05/M01 A3024 RMK SLP254
Loading
Personal Weather Stations






























Interactive Weather Map
Tropical Storm Tracking
New forecast layout! Learn more

10-Day Weather Forecast

Advertisements
Track Severe Weather on mobile